Time;durP1;ratioP1;P1;durP2;ratioP2;P2;SDS_P1;SDS_P2;PMS_P1;PMS_P2;Temp;Humidity;BMP_temperature;BMP_pressure;BME280_temperature;BME280_humidity;BME280_pressure;Samples;Min_cycle;Max_cycle;Signal;HPM_P1;HPM_P2
2023/05/11 00:01:06;;;;;;;1.23;0.67;;;23.30;96.10;;;;;;4939480;28;20208;-91
2023/05/11 00:03:37;;;;;;;2.57;0.77;;;23.30;95.50;;;;;;4926068;29;20225;-92
2023/05/11 00:06:09;;;;;;;1.07;0.67;;;23.60;94.70;;;;;;4940241;29;20209;-91
2023/05/11 00:08:40;;;;;;;0.80;0.80;;;23.30;96.10;;;;;;4940064;29;20217;-92
2023/05/11 00:11:11;;;;;;;0.77;0.63;;;23.40;95.10;;;;;;4943905;29;20209;-93
2023/05/11 00:13:45;;;;;;;1.23;0.50;;;23.40;96.00;;;;;;4938400;29;20212;-92
2023/05/11 00:16:16;;;;;;;1.60;0.70;;;23.60;94.30;;;;;;4937286;29;20276;-92
2023/05/11 00:18:48;;;;;;;2.60;0.70;;;23.50;94.00;;;;;;4936861;29;20212;-91
2023/05/11 00:21:19;;;;;;;2.47;0.70;;;23.50;94.90;;;;;;4926572;29;20558;-93
2023/05/11 00:23:50;;;;;;;1.20;0.80;;;23.30;93.90;;;;;;4932449;29;20213;-93
2023/05/11 00:26:22;;;;;;;1.70;0.60;;;23.30;94.80;;;;;;4937438;29;20213;-92
2023/05/11 00:28:55;;;;;;;2.23;0.50;;;23.20;94.40;;;;;;4922030;29;20284;-92
2023/05/11 00:31:27;;;;;;;1.20;0.60;;;23.30;94.50;;;;;;4947677;29;20212;-91
2023/05/11 00:33:59;;;;;;;1.07;0.70;;;22.80;94.80;;;;;;4941372;28;20291;-93
2023/05/11 00:36:32;;;;;;;1.20;0.60;;;22.90;95.30;;;;;;4920169;29;20667;-94
2023/05/11 00:39:03;;;;;;;2.73;0.70;;;23.10;95.60;;;;;;4920338;29;20216;-94
2023/05/11 00:41:35;;;;;;;1.40;0.77;;;23.00;93.80;;;;;;4937573;29;20212;-91
2023/05/11 00:44:08;;;;;;;1.87;0.70;;;22.80;94.90;;;;;;4936033;29;20238;-91
2023/05/11 00:46:40;;;;;;;1.20;0.70;;;22.50;94.40;;;;;;4937624;29;20208;-91
2023/05/11 00:49:16;;;;;;;1.10;0.60;;;22.80;94.90;;;;;;4925216;29;20225;-90
2023/05/11 00:51:47;;;;;;;3.33;0.90;;;22.50;94.20;;;;;;4918932;29;20209;-93
2023/05/11 00:54:19;;;;;;;0.67;0.50;;;22.60;94.90;;;;;;4928961;29;20216;-92
2023/05/11 00:56:51;;;;;;;1.03;0.70;;;22.50;94.70;;;;;;4942354;29;20209;-90
2023/05/11 00:59:24;;;;;;;2.37;0.70;;;22.50;95.10;;;;;;4941590;29;20744;-91
2023/05/11 01:01:55;;;;;;;0.90;0.63;;;22.60;95.60;;;;;;4919554;29;20239;-90
2023/05/11 01:04:27;;;;;;;0.70;0.70;;;22.90;94.70;;;;;;4935783;29;20634;-92
2023/05/11 01:07:07;;;;;;;2.60;0.80;;;23.40;94.40;;;;;;4937214;29;20267;-92
2023/05/11 01:09:47;;;;;;;1.17;0.67;;;24.10;93.20;;;;;;4937577;29;20208;-94
2023/05/11 01:12:30;;;;;;;0.97;0.60;;;24.70;95.10;;;;;;4947254;29;20208;-93
2023/05/11 01:15:11;;;;;;;1.03;0.70;;;24.60;94.00;;;;;;4949427;29;20208;-92
2023/05/11 01:17:49;;;;;;;1.20;0.70;;;24.80;95.10;;;;;;4934652;29;20291;-92
2023/05/11 01:20:25;;;;;;;0.70;0.70;;;24.80;94.50;;;;;;4940438;29;20208;-93
2023/05/11 01:23:13;;;;;;;1.97;0.80;;;25.10;94.80;;;;;;4935753;29;20238;-93
2023/05/11 01:26:05;;;;;;;1.20;0.70;;;25.30;94.50;;;;;;4918790;29;20204;-91
2023/05/11 01:29:05;;;;;;;1.50;0.90;;;25.60;95.20;;;;;;4930900;29;20612;-92
2023/05/11 01:31:41;;;;;;;2.43;1.33;;;25.60;94.00;;;;;;4933322;29;20208;-92
2023/05/11 01:34:18;;;;;;;2.83;1.13;;;25.60;94.50;;;;;;4936693;29;20354;-92
2023/05/11 01:36:53;;;;;;;2.63;1.00;;;25.70;94.60;;;;;;4919331;29;20212;-91
2023/05/11 01:39:31;;;;;;;2.60;0.97;;;24.30;94.80;;;;;;4936005;29;20200;-92
2023/05/11 01:42:09;;;;;;;3.30;0.97;;;23.80;96.60;;;;;;4932538;29;20275;-91
2023/05/11 01:44:43;;;;;;;1.60;1.10;;;23.60;97.60;;;;;;4918016;29;20276;-92
2023/05/11 01:47:16;;;;;;;1.63;0.90;;;23.40;97.00;;;;;;4935853;29;20259;-92
2023/05/11 01:49:48;;;;;;;2.30;0.93;;;22.90;97.50;;;;;;4935553;29;20204;-92
2023/05/11 01:52:21;;;;;;;2.03;0.93;;;22.50;99.10;;;;;;4935617;29;20212;-92
2023/05/11 01:54:56;;;;;;;2.83;1.40;;;22.20;99.10;;;;;;4936218;29;20208;-91
2023/05/11 01:57:28;;;;;;;2.60;1.20;;;22.00;99.70;;;;;;4933010;29;20220;-93
2023/05/11 02:00:02;;;;;;;2.63;0.93;;;21.90;99.90;;;;;;4936248;29;20223;-92
2023/05/11 02:02:36;;;;;;;2.77;1.20;;;21.70;99.90;;;;;;4935963;29;20229;-92
2023/05/11 02:05:09;;;;;;;2.80;1.20;;;21.60;99.90;;;;;;4936101;29;20201;-91
2023/05/11 02:07:43;;;;;;;3.53;1.10;;;21.40;99.90;;;;;;4935594;29;20205;-91
2023/05/11 02:10:16;;;;;;;3.83;1.23;;;21.20;99.90;;;;;;4935564;29;20259;-91
2023/05/11 02:12:51;;;;;;;4.53;1.33;;;21.10;99.90;;;;;;4935794;29;20216;-91
2023/05/11 02:15:24;;;;;;;2.27;1.03;;;21.00;99.90;;;;;;4958257;29;20223;-91
2023/05/11 02:17:57;;;;;;;2.93;1.17;;;20.80;99.90;;;;;;4956848;29;20193;-92
2023/05/11 02:20:29;;;;;;;2.87;0.90;;;20.70;99.50;;;;;;4948809;29;20247;-92
2023/05/11 02:23:01;;;;;;;1.23;0.90;;;20.60;99.90;;;;;;4937594;29;20232;-92
2023/05/11 02:25:32;;;;;;;1.53;0.87;;;20.50;99.00;;;;;;4937878;29;20213;-94
2023/05/11 02:28:04;;;;;;;3.77;1.17;;;20.30;99.70;;;;;;4936521;29;20219;-92
2023/05/11 02:30:43;;;;;;;1.70;1.17;;;20.30;99.90;;;;;;4938292;29;20215;-92
2023/05/11 02:33:21;;;;;;;1.80;1.10;;;20.20;99.90;;;;;;4941965;29;20215;-92
2023/05/11 02:35:56;;;;;;;2.80;1.10;;;20.00;99.90;;;;;;4944499;29;20215;-92
2023/05/11 02:38:32;;;;;;;2.13;0.70;;;19.90;99.70;;;;;;4938861;29;20276;-93
2023/05/11 02:41:05;;;;;;;1.77;0.90;;;19.80;98.90;;;;;;4938390;29;20215;-91
2023/05/11 02:43:41;;;;;;;2.63;0.83;;;19.80;98.90;;;;;;4944350;29;20236;-92
2023/05/11 02:46:17;;;;;;;3.33;1.00;;;19.60;99.90;;;;;;4940740;29;20677;-92
2023/05/11 02:48:53;;;;;;;2.10;0.93;;;19.60;99.90;;;;;;4938532;29;20204;-92
2023/05/11 02:51:28;;;;;;;1.83;1.20;;;19.50;98.90;;;;;;4937927;29;20306;-92
2023/05/11 02:54:01;;;;;;;1.67;0.93;;;19.40;98.40;;;;;;4939327;29;20267;-92
2023/05/11 02:56:33;;;;;;;1.77;0.90;;;19.30;99.10;;;;;;4939555;29;20204;-93
2023/05/11 02:59:04;;;;;;;1.37;0.80;;;19.20;99.90;;;;;;4937804;29;20208;-92
2023/05/11 03:01:37;;;;;;;3.17;1.10;;;19.10;99.90;;;;;;4939366;29;20208;-93
2023/05/11 03:04:10;;;;;;;3.33;1.10;;;19.00;99.90;;;;;;4938852;29;20319;-93
2023/05/11 03:06:42;;;;;;;1.30;0.80;;;18.90;99.90;;;;;;4938246;29;20631;-95
2023/05/11 03:09:13;;;;;;;1.97;0.80;;;18.70;99.90;;;;;;4936639;29;20200;-91
2023/05/11 03:11:46;;;;;;;3.10;0.90;;;18.60;99.90;;;;;;4940470;29;20216;-93
2023/05/11 03:14:18;;;;;;;3.23;1.00;;;18.40;99.90;;;;;;4939341;29;20213;-92
2023/05/11 03:16:49;;;;;;;1.13;0.80;;;18.30;99.90;;;;;;4938132;29;20267;-94
2023/05/11 03:19:24;;;;;;;2.87;1.00;;;18.20;99.90;;;;;;4937572;29;20208;-92
2023/05/11 03:21:56;;;;;;;1.30;0.90;;;18.20;99.90;;;;;;4939127;29;20212;-92
2023/05/11 03:24:29;;;;;;;1.77;0.80;;;18.00;99.90;;;;;;4933969;29;20240;-93
2023/05/11 03:27:01;;;;;;;1.13;0.80;;;18.00;99.90;;;;;;4919748;29;20213;-91
2023/05/11 03:29:37;;;;;;;1.57;0.70;;;17.90;99.90;;;;;;4919954;29;20217;-96
2023/05/11 03:32:10;;;;;;;2.60;0.90;;;17.70;99.90;;;;;;4934875;29;20212;-95
2023/05/11 03:34:44;;;;;;;0.77;0.60;;;17.50;99.90;;;;;;4934590;29;20298;-96
2023/05/11 03:37:18;;;;;;;1.53;0.80;;;17.40;99.90;;;;;;4931429;29;20205;-96
2023/05/11 03:39:53;;;;;;;2.10;1.00;;;17.20;99.90;;;;;;4932202;29;20220;-96
2023/05/11 03:42:26;;;;;;;1.30;0.90;;;17.10;99.90;;;;;;4932265;29;20260;-96
2023/05/11 03:45:00;;;;;;;1.67;0.97;;;17.00;99.90;;;;;;4940665;28;20709;-94
2023/05/11 03:47:34;;;;;;;1.87;1.20;;;16.80;99.90;;;;;;4931821;29;20618;-96
2023/05/11 03:50:10;;;;;;;1.83;0.80;;;16.70;99.90;;;;;;4932172;29;20212;-96
2023/05/11 03:52:43;;;;;;;4.50;1.30;;;16.60;99.90;;;;;;4936132;29;20241;-95
2023/05/11 03:55:15;;;;;;;3.53;1.00;;;16.60;99.90;;;;;;4931786;29;20224;-93
2023/05/11 03:57:46;;;;;;;2.83;1.10;;;16.50;99.90;;;;;;4935937;29;20237;-95
2023/05/11 04:00:18;;;;;;;3.50;1.20;;;16.50;99.90;;;;;;4939283;29;20221;-95
2023/05/11 04:02:50;;;;;;;4.73;1.20;;;16.40;99.90;;;;;;4940502;29;20216;-96
2023/05/11 04:05:24;;;;;;;1.97;1.10;;;16.40;99.90;;;;;;4938860;29;20278;-95
2023/05/11 04:07:56;;;;;;;1.97;1.20;;;16.40;99.90;;;;;;4939784;29;20432;-95
2023/05/11 04:10:28;;;;;;;3.23;1.43;;;16.30;99.90;;;;;;4939352;29;20827;-94
2023/05/11 04:13:00;;;;;;;5.50;1.17;;;16.20;99.90;;;;;;4938530;29;20223;-96
2023/05/11 04:15:32;;;;;;;3.37;1.37;;;16.10;99.90;;;;;;4938283;29;20216;-94
2023/05/11 04:18:04;;;;;;;3.43;1.10;;;16.00;99.90;;;;;;4920825;29;20215;-96
2023/05/11 04:20:38;;;;;;;2.70;1.20;;;15.90;99.90;;;;;;4920818;29;20217;-96
2023/05/11 04:23:10;;;;;;;3.50;1.27;;;15.80;99.90;;;;;;4940748;29;20200;-96
2023/05/11 04:25:42;;;;;;;2.23;1.13;;;15.60;99.90;;;;;;4957117;28;20252;-96
2023/05/11 04:28:15;;;;;;;1.47;1.20;;;15.50;99.90;;;;;;4952793;28;20196;-95
2023/05/11 04:30:47;;;;;;;2.10;1.50;;;15.50;99.90;;;;;;4941388;29;20203;-95
2023/05/11 04:33:18;;;;;;;1.20;1.07;;;15.40;99.90;;;;;;4944820;28;20220;-96
2023/05/11 04:35:55;;;;;;;1.70;1.00;;;15.30;99.90;;;;;;4939490;29;20568;-96
2023/05/11 04:38:26;;;;;;;2.80;1.30;;;15.30;99.90;;;;;;4938739;28;20216;-95
2023/05/11 04:40:58;;;;;;;4.17;1.20;;;15.20;99.90;;;;;;4937303;29;20212;-96
2023/05/11 04:43:30;;;;;;;2.40;1.27;;;15.20;99.90;;;;;;4938483;29;20213;-94
2023/05/11 04:46:02;;;;;;;2.73;1.57;;;15.20;99.90;;;;;;4938122;29;20205;-96
2023/05/11 04:48:34;;;;;;;2.97;1.43;;;15.10;99.90;;;;;;4932870;29;20220;-96
2023/05/11 04:51:08;;;;;;;2.23;1.53;;;15.10;99.90;;;;;;4939640;29;20215;-96
2023/05/11 04:53:40;;;;;;;2.73;1.30;;;15.00;99.90;;;;;;4940246;28;20227;-96
2023/05/11 04:56:12;;;;;;;4.57;1.87;;;14.90;99.90;;;;;;4939613;29;20201;-95
2023/05/11 04:58:44;;;;;;;2.93;1.50;;;14.90;99.90;;;;;;4932703;29;20235;-96
2023/05/11 05:01:16;;;;;;;1.93;1.40;;;14.80;99.90;;;;;;4940822;29;20215;-94
2023/05/11 05:03:50;;;;;;;2.77;1.40;;;14.80;99.90;;;;;;4940540;29;20232;-94
2023/05/11 05:06:26;;;;;;;2.47;1.43;;;14.70;99.90;;;;;;4942144;29;20214;-94
2023/05/11 05:08:59;;;;;;;3.97;1.60;;;14.60;99.90;;;;;;4936801;29;20207;-96
2023/05/11 05:11:31;;;;;;;4.10;2.00;;;14.50;99.90;;;;;;4938150;29;20212;-96
2023/05/11 05:14:02;;;;;;;3.77;1.77;;;14.50;99.90;;;;;;4932423;29;20689;-95
2023/05/11 05:16:38;;;;;;;3.07;1.40;;;14.40;99.90;;;;;;4924859;29;20212;-96
2023/05/11 05:19:11;;;;;;;2.80;1.70;;;14.40;99.90;;;;;;4932880;29;20212;-96
2023/05/11 05:21:47;;;;;;;2.77;1.50;;;14.40;99.90;;;;;;4937609;29;20238;-96
2023/05/11 05:24:18;;;;;;;2.50;1.50;;;14.50;99.90;;;;;;4933539;28;20228;-96
2023/05/11 05:26:50;;;;;;;1.63;1.40;;;14.50;99.90;;;;;;4939085;29;20212;-96
2023/05/11 05:29:22;;;;;;;2.60;1.10;;;14.50;99.90;;;;;;4933783;29;20231;-96
2023/05/11 05:31:55;;;;;;;3.77;1.30;;;14.50;99.90;;;;;;4939700;29;20204;-96
2023/05/11 05:34:27;;;;;;;1.63;1.33;;;14.50;99.90;;;;;;4939381;29;20212;-96
2023/05/11 05:37:01;;;;;;;4.13;1.50;;;14.40;99.90;;;;;;4938622;29;20618;-96
2023/05/11 05:39:34;;;;;;;4.17;1.30;;;14.40;99.90;;;;;;4933902;28;20240;-96
2023/05/11 05:42:06;;;;;;;5.80;1.40;;;14.40;99.90;;;;;;4922263;29;20221;-96
2023/05/11 05:44:37;;;;;;;3.47;1.40;;;14.30;99.90;;;;;;4922755;29;20764;-90
2023/05/11 05:47:10;;;;;;;5.43;1.10;;;14.20;99.90;;;;;;4928102;29;20729;-95
2023/05/11 05:49:42;;;;;;;2.20;1.23;;;14.20;99.90;;;;;;4935636;29;20296;-96
2023/05/11 05:52:16;;;;;;;4.63;1.40;;;14.10;99.90;;;;;;4940519;29;20211;-96
2023/05/11 05:54:49;;;;;;;3.87;1.60;;;14.00;99.90;;;;;;4937081;29;20204;-96
2023/05/11 05:57:24;;;;;;;2.17;1.00;;;13.90;99.90;;;;;;4931596;29;20204;-96
2023/05/11 05:59:56;;;;;;;3.50;1.27;;;13.80;99.90;;;;;;4939579;29;20538;-96
2023/05/11 06:02:28;;;;;;;2.17;1.10;;;13.70;99.90;;;;;;4940997;29;20224;-96
2023/05/11 06:05:00;;;;;;;1.97;1.20;;;13.70;99.90;;;;;;4938555;29;20228;-96
2023/05/11 06:07:34;;;;;;;2.10;1.10;;;13.70;99.90;;;;;;4938649;28;20220;-95
2023/05/11 06:10:07;;;;;;;1.73;0.93;;;13.60;99.90;;;;;;4942991;28;20212;-96
2023/05/11 06:12:39;;;;;;;3.27;1.20;;;13.60;99.90;;;;;;4934522;29;20662;-95
2023/05/11 06:15:14;;;;;;;3.17;1.00;;;13.50;99.90;;;;;;4942741;29;20217;-94
2023/05/11 06:17:46;;;;;;;1.27;0.80;;;13.60;99.90;;;;;;4941123;29;20200;-94
2023/05/11 06:20:19;;;;;;;2.20;0.80;;;13.60;99.90;;;;;;4933039;29;20212;-96
2023/05/11 06:22:52;;;;;;;1.77;0.90;;;13.50;99.90;;;;;;4932981;29;20214;-96
2023/05/11 06:25:23;;;;;;;1.90;1.00;;;13.50;99.90;;;;;;4937548;29;20240;-95
2023/05/11 06:27:55;;;;;;;1.73;0.97;;;13.50;99.90;;;;;;4943328;29;20625;-96
2023/05/11 06:30:30;;;;;;;3.37;1.00;;;13.40;99.90;;;;;;4943432;29;20732;-96
2023/05/11 06:33:04;;;;;;;2.37;1.10;;;13.40;99.90;;;;;;4950064;28;20189;-96
2023/05/11 06:35:40;;;;;;;2.70;1.00;;;13.30;99.90;;;;;;4961864;29;20227;-96
2023/05/11 06:38:14;;;;;;;2.67;1.07;;;13.30;99.90;;;;;;4952065;29;20273;-96
2023/05/11 06:40:46;;;;;;;3.43;1.00;;;13.10;99.90;;;;;;4945151;28;20216;-96
2023/05/11 06:43:17;;;;;;;2.53;1.10;;;13.00;99.90;;;;;;4944171;29;20223;-96
2023/05/11 06:45:49;;;;;;;5.23;1.30;;;12.90;99.90;;;;;;4937434;28;20236;-95
2023/05/11 06:48:22;;;;;;;1.97;1.30;;;12.80;99.90;;;;;;4935880;29;20219;-96
2023/05/11 06:50:54;;;;;;;4.10;1.20;;;12.70;99.90;;;;;;4928834;29;20298;-96
2023/05/11 06:53:28;;;;;;;6.80;1.40;;;12.60;99.90;;;;;;4935330;29;20641;-96
2023/05/11 06:56:00;;;;;;;2.53;1.10;;;12.50;99.90;;;;;;4941460;29;20200;-96
2023/05/11 06:58:32;;;;;;;3.00;1.13;;;12.50;99.90;;;;;;4925672;29;20213;-96
2023/05/11 07:01:06;;;;;;;2.40;0.90;;;12.50;99.90;;;;;;4942748;29;20216;-96
2023/05/11 07:03:42;;;;;;;2.50;1.07;;;12.40;99.90;;;;;;4943083;29;20212;-96
2023/05/11 07:06:15;;;;;;;2.43;1.10;;;12.40;99.90;;;;;;4941345;28;20243;-96
2023/05/11 07:08:48;;;;;;;2.20;1.33;;;12.30;99.90;;;;;;4928728;29;20714;-96
2023/05/11 07:11:24;;;;;;;1.50;0.90;;;12.30;99.90;;;;;;4940475;29;20224;-96
2023/05/11 07:13:56;;;;;;;1.37;0.80;;;12.20;99.90;;;;;;4940624;28;20239;-96
2023/05/11 07:16:27;;;;;;;1.93;1.10;;;12.20;99.90;;;;;;4939240;29;20658;-96
2023/05/11 07:19:01;;;;;;;3.47;1.10;;;12.10;99.90;;;;;;4940730;29;20299;-96
2023/05/11 07:21:34;;;;;;;3.10;1.23;;;12.10;99.90;;;;;;4941144;29;20223;-96
2023/05/11 07:24:12;;;;;;;5.43;1.00;;;12.00;99.90;;;;;;4931364;29;20205;-96
2023/05/11 07:26:44;;;;;;;2.60;1.00;;;11.90;99.90;;;;;;4923470;29;20682;-96
2023/05/11 07:29:16;;;;;;;3.67;0.90;;;11.90;99.90;;;;;;4930935;29;20212;-95
2023/05/11 07:31:48;;;;;;;2.30;0.90;;;11.80;99.90;;;;;;4935196;29;20205;-94
2023/05/11 07:34:20;;;;;;;2.23;1.10;;;11.80;99.90;;;;;;4934860;29;20237;-95
2023/05/11 07:36:52;;;;;;;2.50;1.00;;;11.80;99.90;;;;;;4933142;29;20200;-96
2023/05/11 07:39:26;;;;;;;4.10;0.90;;;11.80;99.90;;;;;;4941658;29;20561;-96
2023/05/11 07:41:58;;;;;;;4.00;1.17;;;11.70;99.90;;;;;;4927002;29;20273;-96
2023/05/11 07:44:30;;;;;;;3.50;1.00;;;11.70;99.90;;;;;;4923701;29;20217;-96
2023/05/11 07:47:01;;;;;;;5.10;1.30;;;11.70;99.90;;;;;;4934099;29;20308;-96
2023/05/11 07:49:36;;;;;;;3.13;1.40;;;11.70;99.90;;;;;;4940868;29;20563;-96
2023/05/11 07:52:13;;;;;;;4.20;1.50;;;11.60;99.90;;;;;;4929645;29;20259;-96
2023/05/11 07:54:49;;;;;;;2.90;1.50;;;11.60;99.90;;;;;;4941823;29;20200;-96
2023/05/11 07:57:22;;;;;;;4.33;1.60;;;11.60;99.90;;;;;;4947374;29;20267;-96
2023/05/11 07:59:53;;;;;;;5.83;1.73;;;11.50;99.90;;;;;;4958700;29;20233;-96
2023/05/11 08:02:24;;;;;;;4.70;1.50;;;11.50;99.90;;;;;;4953145;28;20192;-96
2023/05/11 08:04:57;;;;;;;3.20;1.40;;;11.50;99.90;;;;;;4956210;28;20236;-96
2023/05/11 08:07:29;;;;;;;2.77;1.50;;;11.50;99.90;;;;;;4959031;29;20260;-96
2023/05/11 08:10:02;;;;;;;5.73;1.30;;;11.40;99.90;;;;;;4941605;29;20184;-96
2023/05/11 08:12:33;;;;;;;4.00;1.40;;;11.40;99.90;;;;;;4951147;29;20220;-96
2023/05/11 08:15:06;;;;;;;3.27;1.40;;;11.40;99.90;;;;;;4923990;29;20269;-96
2023/05/11 08:17:37;;;;;;;2.40;1.47;;;11.40;99.90;;;;;;4925967;29;20205;-96
2023/05/11 08:20:11;;;;;;;2.50;1.23;;;11.30;99.90;;;;;;4939021;28;20205;-96
2023/05/11 08:22:42;;;;;;;1.60;1.13;;;11.30;99.90;;;;;;4944828;29;20282;-96
2023/05/11 08:25:16;;;;;;;4.03;1.60;;;11.30;99.90;;;;;;4943475;29;20297;-96
2023/05/11 08:27:48;;;;;;;2.43;1.27;;;11.20;99.90;;;;;;4941658;29;20215;-94
2023/05/11 08:30:21;;;;;;;2.23;1.50;;;11.20;99.90;;;;;;4920284;29;20241;-96
2023/05/11 08:32:53;;;;;;;3.67;1.40;;;11.20;99.90;;;;;;4930656;29;20654;-96
2023/05/11 08:35:29;;;;;;;4.30;1.40;;;11.10;99.90;;;;;;4940418;29;20279;-96
2023/05/11 08:38:00;;;;;;;3.73;1.40;;;11.10;99.90;;;;;;4942060;28;20960;-96
2023/05/11 08:40:34;;;;;;;4.97;1.47;;;11.10;99.90;;;;;;4953022;29;20204;-95
2023/05/11 08:43:08;;;;;;;2.93;1.20;;;11.10;99.90;;;;;;4950995;29;20204;-96
2023/05/11 08:45:40;;;;;;;4.00;1.53;;;11.10;99.90;;;;;;4950434;29;20245;-95
2023/05/11 08:48:14;;;;;;;2.30;1.10;;;11.00;99.90;;;;;;4929705;29;20276;-95
2023/05/11 08:50:57;;;;;;;3.20;1.33;;;11.00;99.90;;;;;;4940544;29;20201;-96
2023/05/11 08:53:29;;;;;;;1.37;1.20;;;10.90;99.90;;;;;;4958777;29;20528;-96
2023/05/11 08:56:05;;;;;;;4.13;1.60;;;10.90;99.90;;;;;;4959501;28;20209;-96
2023/05/11 08:58:38;;;;;;;3.87;1.50;;;10.90;99.90;;;;;;4947790;29;20296;-96
2023/05/11 09:01:11;;;;;;;5.37;1.40;;;10.90;99.90;;;;;;4937657;29;20215;-96
2023/05/11 09:03:43;;;;;;;2.83;1.40;;;10.80;99.90;;;;;;4940798;29;20223;-96
2023/05/11 09:06:15;;;;;;;3.80;1.40;;;10.80;99.90;;;;;;4940805;28;20334;-96
2023/05/11 09:08:47;;;;;;;2.33;1.40;;;10.70;99.90;;;;;;4938865;29;20236;-96
2023/05/11 09:11:22;;;;;;;4.00;1.50;;;10.70;99.90;;;;;;4942365;29;20212;-96
2023/05/11 09:13:55;;;;;;;3.53;1.40;;;10.70;99.90;;;;;;4940536;28;20275;-96
2023/05/11 09:16:29;;;;;;;5.40;1.40;;;10.70;99.90;;;;;;4930515;28;20415;-96
2023/05/11 09:19:07;;;;;;;2.73;1.33;;;10.60;99.90;;;;;;4937460;29;20195;-96
2023/05/11 09:21:40;;;;;;;2.77;1.20;;;10.60;99.90;;;;;;4952745;29;20211;-96
2023/05/11 09:24:15;;;;;;;5.30;1.17;;;10.60;99.90;;;;;;4958518;29;20268;-95
2023/05/11 09:26:48;;;;;;;3.93;1.00;;;10.60;99.90;;;;;;4950893;29;20255;-96
2023/05/11 09:29:22;;;;;;;2.50;1.67;;;10.50;99.90;;;;;;4951521;29;20204;-96
2023/05/11 09:31:59;;;;;;;3.97;1.23;;;10.50;99.90;;;;;;4958339;29;20196;-96
2023/05/11 09:34:31;;;;;;;3.23;1.30;;;10.50;99.90;;;;;;4934380;29;20217;-96
2023/05/11 09:37:03;;;;;;;3.03;1.47;;;10.50;99.90;;;;;;4922386;29;20212;-96
2023/05/11 09:39:37;;;;;;;2.80;1.10;;;10.50;99.90;;;;;;4930397;29;20235;-96
2023/05/11 09:42:32;;;;;;;3.57;1.00;;;10.40;99.90;;;;;;4940995;28;20291;-96
2023/05/11 09:45:03;;;;;;;4.73;0.90;;;10.40;99.90;;;;;;4925429;29;20271;-96
2023/05/11 09:47:41;;;;;;;1.83;1.10;;;10.40;99.90;;;;;;4927015;29;20320;-96
2023/05/11 09:50:20;;;;;;;2.17;1.27;;;10.40;99.90;;;;;;4943861;29;20200;-96
2023/05/11 09:52:56;;;;;;;3.57;1.30;;;10.40;99.90;;;;;;4940235;29;20288;-96
2023/05/11 09:55:28;;;;;;;2.17;1.00;;;10.40;99.90;;;;;;4952979;29;20631;-96
2023/05/11 09:58:03;;;;;;;2.67;1.20;;;10.40;99.90;;;;;;4946754;29;20212;-96
2023/05/11 10:00:35;;;;;;;2.13;1.20;;;10.30;99.90;;;;;;4956244;29;20235;-96
2023/05/11 10:03:09;;;;;;;2.17;1.17;;;10.30;99.90;;;;;;4957590;28;20247;-96
2023/05/11 10:05:42;;;;;;;5.10;1.20;;;10.20;99.90;;;;;;4962204;29;20208;-96
2023/05/11 10:08:15;;;;;;;2.43;1.10;;;10.10;99.90;;;;;;4958340;29;20224;-95
2023/05/11 10:10:48;;;;;;;7.43;1.50;;;10.20;99.90;;;;;;4954652;29;20200;-96
2023/05/11 10:13:25;;;;;;;1.90;1.00;;;10.10;99.90;;;;;;4947832;29;20216;-96
2023/05/11 10:15:59;;;;;;;3.10;1.33;;;10.10;99.90;;;;;;4948964;28;20243;-96
2023/05/11 10:18:36;;;;;;;2.40;1.40;;;10.00;99.90;;;;;;4950748;29;20206;-96
2023/05/11 10:21:09;;;;;;;2.43;0.93;;;10.00;99.90;;;;;;4948302;29;20315;-96
2023/05/11 10:23:41;;;;;;;2.93;1.20;;;9.90;99.90;;;;;;4946364;29;20212;-96
2023/05/11 10:26:14;;;;;;;3.03;1.30;;;9.90;99.90;;;;;;4932069;29;20200;-96
2023/05/11 10:28:49;;;;;;;2.93;1.33;;;9.90;99.90;;;;;;4944714;29;20240;-96
2023/05/11 10:31:23;;;;;;;2.60;1.20;;;9.90;99.90;;;;;;4945796;29;20263;-96
2023/05/11 10:33:56;;;;;;;3.57;1.17;;;9.90;99.90;;;;;;4945568;29;20246;-96
2023/05/11 10:36:29;;;;;;;2.80;1.03;;;9.90;99.90;;;;;;4945963;28;20212;-96
2023/05/11 10:39:01;;;;;;;3.60;1.10;;;9.90;99.90;;;;;;4947237;29;20256;-96
2023/05/11 10:41:53;;;;;;;1.90;1.30;;;9.90;99.90;;;;;;4950803;28;20299;-96
2023/05/11 10:44:56;;;;;;;3.07;1.20;;;9.90;99.90;;;;;;4948467;29;20223;-96
2023/05/11 10:47:58;;;;;;;3.87;1.20;;;9.80;99.90;;;;;;4962069;28;20240;-96
2023/05/11 10:50:57;;;;;;;1.90;1.27;;;9.80;99.90;;;;;;4959830;29;20196;-96
2023/05/11 10:53:51;;;;;;;1.73;1.00;;;9.80;99.90;;;;;;4951990;29;20204;-96
2023/05/11 10:56:51;;;;;;;3.37;1.03;;;9.80;99.90;;;;;;4946658;28;20212;-96
2023/05/11 10:59:47;;;;;;;3.90;1.20;;;9.80;99.90;;;;;;4944762;28;20264;-96
2023/05/11 11:02:26;;;;;;;2.10;1.10;;;9.80;99.90;;;;;;4944252;29;20208;-96
2023/05/11 11:04:59;;;;;;;4.57;1.10;;;9.80;99.90;;;;;;4949643;29;20209;-96
2023/05/11 11:07:31;;;;;;;1.57;0.90;;;9.80;99.90;;;;;;4948972;29;20236;-95
2023/05/11 11:10:06;;;;;;;2.10;1.10;;;9.90;99.90;;;;;;4946546;29;20263;-96
2023/05/11 11:12:38;;;;;;;1.73;1.30;;;9.90;99.90;;;;;;4944640;29;20267;-95
2023/05/11 11:15:12;;;;;;;2.00;1.00;;;9.80;99.90;;;;;;4948924;28;20217;-95
2023/05/11 11:18:11;;;;;;;2.43;1.10;;;9.80;99.90;;;;;;4946865;29;20215;-95
2023/05/11 11:20:51;;;;;;;1.87;1.10;;;9.80;99.90;;;;;;4945804;29;20230;-96
2023/05/11 11:23:48;;;;;;;2.27;1.20;;;9.70;99.90;;;;;;4941649;28;20686;-96
2023/05/11 11:26:51;;;;;;;2.73;1.20;;;9.70;99.90;;;;;;4945767;29;20575;-96
2023/05/11 11:29:23;;;;;;;3.73;1.20;;;9.80;99.90;;;;;;4927993;29;20240;-96
2023/05/11 11:32:28;;;;;;;2.80;1.10;;;9.70;99.90;;;;;;4936850;29;20225;-96
2023/05/11 11:35:03;;;;;;;2.50;1.20;;;9.70;99.90;;;;;;4959555;29;20196;-96
2023/05/11 11:38:04;;;;;;;3.57;1.20;;;9.70;99.90;;;;;;4960858;28;20192;-96
2023/05/11 11:40:40;;;;;;;1.77;1.30;;;9.70;99.90;;;;;;4961434;29;20214;-96
2023/05/11 11:43:25;;;;;;;3.07;1.30;;;9.70;99.90;;;;;;4961216;29;20224;-96
2023/05/11 11:45:58;;;;;;;2.97;1.20;;;9.70;99.90;;;;;;4961182;28;20258;-96
2023/05/11 11:48:34;;;;;;;4.10;1.20;;;9.60;99.90;;;;;;4949002;28;20285;-96
2023/05/11 11:51:10;;;;;;;2.80;1.40;;;9.50;99.90;;;;;;4949977;28;20215;-96
2023/05/11 11:54:06;;;;;;;2.73;1.50;;;9.50;99.90;;;;;;4944532;29;20218;-96
2023/05/11 11:56:56;;;;;;;1.73;1.30;;;9.50;99.90;;;;;;4946493;29;20223;-96
2023/05/11 11:59:28;;;;;;;2.63;1.23;;;9.50;99.90;;;;;;4957844;29;20204;-96
2023/05/11 12:02:02;;;;;;;2.73;1.10;;;9.60;99.90;;;;;;4953256;28;20216;-96
2023/05/11 12:04:53;;;;;;;5.63;1.13;;;9.60;99.90;;;;;;4951688;29;20228;-96
2023/05/11 12:07:32;;;;;;;2.03;1.10;;;9.60;99.90;;;;;;4948284;29;20240;-96
2023/05/11 12:10:05;;;;;;;2.60;1.33;;;9.60;99.90;;;;;;4949926;29;20244;-96
2023/05/11 12:12:42;;;;;;;5.77;1.57;;;9.60;99.90;;;;;;4944283;29;20223;-96
2023/05/11 12:15:25;;;;;;;1.63;1.40;;;9.60;99.90;;;;;;4930110;29;20268;-96
2023/05/11 12:18:02;;;;;;;2.50;1.30;;;9.50;99.90;;;;;;4929472;29;20658;-96
2023/05/11 12:20:39;;;;;;;2.13;1.43;;;9.40;99.90;;;;;;4933127;29;20217;-96
2023/05/11 12:23:15;;;;;;;3.90;1.60;;;9.30;99.90;;;;;;4932217;29;20249;-96
2023/05/11 12:26:01;;;;;;;4.50;1.60;;;9.30;99.90;;;;;;4942223;29;20212;-96
2023/05/11 12:28:34;;;;;;;3.27;1.60;;;9.30;99.90;;;;;;4949640;28;20236;-96
2023/05/11 12:31:07;;;;;;;4.87;1.77;;;9.30;99.90;;;;;;4951523;29;20295;-96
2023/05/11 12:33:52;;;;;;;3.03;1.20;;;9.30;99.90;;;;;;4951004;29;20223;-95
2023/05/11 12:36:25;;;;;;;3.00;1.50;;;9.30;99.90;;;;;;4951182;28;20237;-96
2023/05/11 12:39:02;;;;;;;2.43;1.27;;;9.30;99.90;;;;;;4950520;29;20209;-96
2023/05/11 12:41:36;;;;;;;2.83;1.47;;;9.40;99.90;;;;;;4948933;29;20236;-96
2023/05/11 12:44:08;;;;;;;3.40;1.57;;;9.30;99.90;;;;;;4951956;29;20212;-95
2023/05/11 12:46:43;;;;;;;3.67;1.30;;;9.30;99.90;;;;;;4951051;29;20212;-96
2023/05/11 12:49:19;;;;;;;2.67;1.23;;;9.30;99.90;;;;;;4955713;29;20232;-96
2023/05/11 12:52:24;;;;;;;2.60;1.57;;;9.30;99.90;;;;;;4958926;29;20192;-96
2023/05/11 12:55:00;;;;;;;3.27;1.40;;;9.30;99.90;;;;;;4960000;29;20240;-96
2023/05/11 12:57:33;;;;;;;3.40;1.60;;;9.40;99.90;;;;;;4935229;29;20205;-96
2023/05/11 13:00:13;;;;;;;2.33;1.40;;;9.40;99.90;;;;;;4928312;29;20208;-96
2023/05/11 13:02:54;;;;;;;1.90;1.20;;;9.40;99.90;;;;;;4931925;29;20239;-96
2023/05/11 13:05:31;;;;;;;2.37;1.40;;;9.40;99.90;;;;;;4929568;29;20213;-96
2023/05/11 13:08:24;;;;;;;1.67;1.17;;;9.40;99.90;;;;;;4951850;29;20350;-96
2023/05/11 13:11:27;;;;;;;5.13;1.77;;;9.40;99.90;;;;;;4951901;29;20216;-96
2023/05/11 13:13:59;;;;;;;2.33;1.97;;;9.40;99.90;;;;;;4949347;29;20269;-96
2023/05/11 13:16:33;;;;;;;3.90;1.90;;;9.40;99.90;;;;;;4944896;29;20237;-96
2023/05/11 13:19:08;;;;;;;3.10;2.13;;;9.40;99.90;;;;;;4931641;29;20287;-96
2023/05/11 13:21:42;;;;;;;3.53;2.00;;;9.50;99.90;;;;;;4932409;29;20196;-96
2023/05/11 13:24:21;;;;;;;6.33;1.90;;;9.50;99.90;;;;;;4931465;29;20212;-96
2023/05/11 13:26:59;;;;;;;4.57;1.83;;;9.40;99.90;;;;;;4943584;29;20296;-96
2023/05/11 13:35:49;;;;;;;3.30;1.83;;;9.40;99.90;;;;;;4948298;29;20223;-96